createdAt,value
2023-04-22T00:00:03.202Z,83.00
2023-04-22T00:01:02.812Z,83.00
2023-04-22T00:02:03.192Z,83.00
2023-04-22T00:03:03.015Z,84.00
2023-04-22T00:04:03.412Z,84.00
2023-04-22T00:05:02.898Z,84.00
2023-04-22T00:06:02.986Z,84.00
2023-04-22T00:07:03.406Z,84.00
2023-04-22T00:08:03.146Z,85.00
2023-04-22T00:09:03.539Z,85.00
2023-04-22T00:10:03.070Z,85.00
2023-04-22T00:11:03.263Z,86.00
2023-04-22T00:12:02.698Z,86.00
2023-04-22T00:13:02.297Z,86.00
2023-04-22T00:14:02.292Z,86.00
2023-04-22T00:15:02.698Z,87.00
2023-04-22T00:16:02.440Z,87.00
2023-04-22T00:17:03.445Z,87.00
2023-04-22T00:18:02.976Z,87.00
2023-04-22T00:19:03.441Z,87.00
2023-04-22T00:20:02.866Z,88.00
2023-04-22T00:21:03.157Z,88.00
2023-04-22T00:22:02.524Z,87.00
2023-04-22T00:23:02.178Z,86.00
2023-04-22T00:24:02.583Z,86.00
2023-04-22T00:25:02.018Z,86.00
2023-04-22T00:26:02.440Z,86.00
2023-04-22T00:27:02.895Z,85.00
2023-04-22T00:28:02.601Z,85.00
2023-04-22T00:29:02.380Z,87.00
2023-04-22T00:30:02.743Z,87.00
2023-04-22T00:31:02.394Z,87.00
2023-04-22T00:32:03.461Z,86.00
2023-04-22T00:33:02.964Z,85.00
2023-04-22T00:34:03.411Z,84.00
2023-04-22T00:35:02.988Z,84.00
2023-04-22T00:36:03.390Z,85.00
2023-04-22T00:37:02.584Z,85.00
2023-04-22T00:38:02.317Z,86.00
2023-04-22T00:39:02.077Z,86.00
2023-04-22T00:40:02.505Z,85.00
2023-04-22T00:41:02.050Z,86.00
2023-04-22T00:42:02.782Z,85.00
2023-04-22T00:43:02.505Z,85.00
2023-04-22T00:44:02.929Z,84.00
2023-04-22T00:45:02.678Z,84.00
2023-04-22T00:46:02.993Z,84.00
2023-04-22T00:47:03.327Z,85.00
2023-04-22T00:48:03.088Z,84.00
2023-04-22T00:49:03.090Z,84.00
2023-04-22T00:50:02.763Z,85.00
2023-04-22T00:51:03.091Z,86.00
2023-04-22T00:52:03.468Z,86.00
2023-04-22T00:53:02.959Z,86.00
2023-04-22T00:54:03.438Z,86.00
2023-04-22T00:55:02.921Z,86.00
2023-04-22T00:56:03.016Z,87.00
2023-04-22T00:57:02.806Z,88.00
2023-04-22T00:58:02.606Z,87.00
2023-04-22T00:59:02.976Z,87.00
2023-04-22T01:00:02.757Z,88.00
2023-04-22T01:01:02.587Z,89.00
2023-04-22T01:02:02.772Z,88.00
2023-04-22T01:03:02.746Z,87.00
2023-04-22T01:04:02.229Z,89.00
2023-04-22T01:05:02.700Z,89.00
2023-04-22T01:06:02.278Z,88.00
2023-04-22T01:07:01.814Z,88.00
2023-04-22T01:08:01.872Z,87.00
2023-04-22T01:09:02.205Z,88.00
2023-04-22T01:10:01.604Z,88.00
2023-04-22T01:11:02.011Z,88.00
2023-04-22T01:12:02.407Z,89.00
2023-04-22T01:13:02.708Z,88.00
2023-04-22T01:14:02.433Z,88.00
2023-04-22T01:15:04.693Z,88.00
2023-04-22T01:16:02.828Z,88.00
2023-04-22T01:17:02.058Z,87.00
2023-04-22T01:18:02.295Z,88.00
2023-04-22T01:19:02.046Z,88.00
2023-04-22T01:20:01.865Z,88.00
2023-04-22T01:21:02.291Z,87.00
2023-04-22T01:22:02.862Z,87.00
2023-04-22T01:23:03.198Z,87.00
2023-04-22T01:24:02.630Z,87.00
2023-04-22T01:25:02.980Z,87.00
2023-04-22T01:26:02.893Z,87.00
2023-04-22T01:27:02.343Z,87.00
2023-04-22T01:28:02.193Z,87.00
2023-04-22T01:29:02.648Z,87.00
2023-04-22T01:30:02.366Z,87.00
2023-04-22T01:31:02.256Z,87.00
2023-04-22T01:32:02.535Z,88.00
2023-04-22T01:33:02.866Z,88.00
2023-04-22T01:34:02.435Z,88.00
2023-04-22T01:35:02.539Z,88.00
2023-04-22T01:36:02.968Z,88.00
2023-04-22T01:37:02.395Z,88.00
2023-04-22T01:38:02.178Z,88.00
2023-04-22T01:39:02.367Z,88.00
2023-04-22T01:40:02.087Z,89.00
2023-04-22T01:41:02.580Z,89.00
2023-04-22T01:42:02.083Z,89.00
2023-04-22T01:43:01.946Z,89.00
2023-04-22T01:44:02.245Z,89.00
2023-04-22T01:45:01.976Z,89.00
2023-04-22T01:46:02.012Z,89.00
2023-04-22T01:47:02.603Z,88.00
2023-04-22T01:48:02.352Z,88.00
2023-04-22T01:49:02.265Z,88.00
2023-04-22T01:50:02.150Z,88.00
2023-04-22T01:51:02.571Z,88.00
2023-04-22T01:52:02.237Z,88.00
2023-04-22T01:53:01.936Z,88.00
2023-04-22T01:54:02.168Z,88.00
2023-04-22T01:55:01.824Z,88.00
2023-04-22T01:56:01.680Z,89.00
2023-04-22T01:57:02.215Z,88.00
2023-04-22T01:58:01.699Z,88.00
2023-04-22T01:59:01.927Z,89.00
2023-04-22T02:00:01.644Z,88.00
2023-04-22T02:01:02.275Z,88.00
2023-04-22T02:02:03.233Z,87.00
2023-04-22T02:03:03.365Z,87.00
2023-04-22T02:04:03.038Z,86.00
2023-04-22T02:05:03.473Z,86.00
2023-04-22T02:06:03.248Z,86.00
2023-04-22T02:07:03.684Z,86.00
2023-04-22T02:08:03.589Z,87.00
2023-04-22T02:09:03.331Z,87.00
2023-04-22T02:10:03.895Z,88.00
2023-04-22T02:11:03.444Z,88.00
2023-04-22T02:12:03.048Z,88.00
2023-04-22T02:13:02.843Z,88.00
2023-04-22T02:14:02.655Z,88.00
2023-04-22T02:15:03.135Z,88.00
2023-04-22T02:16:02.702Z,88.00
2023-04-22T02:17:03.246Z,87.00
2023-04-22T02:18:03.081Z,87.00
2023-04-22T02:19:02.801Z,86.00
2023-04-22T02:20:02.844Z,86.00
2023-04-22T02:21:02.982Z,87.00
2023-04-22T02:22:03.467Z,87.00
2023-04-22T02:23:03.322Z,86.00
2023-04-22T02:24:03.166Z,86.00
2023-04-22T02:25:03.632Z,86.00
2023-04-22T02:26:03.241Z,85.00
2023-04-22T02:27:03.537Z,85.00
2023-04-22T02:28:03.423Z,85.00
2023-04-22T02:29:03.979Z,85.00
2023-04-22T02:30:03.672Z,84.00
2023-04-22T02:31:03.505Z,84.00
2023-04-22T02:32:03.060Z,84.00
2023-04-22T02:33:02.899Z,84.00
2023-04-22T02:34:02.634Z,83.00
2023-04-22T02:35:03.046Z,83.00
2023-04-22T02:36:02.799Z,83.00
2023-04-22T02:37:03.245Z,83.00
2023-04-22T02:38:03.011Z,83.00
2023-04-22T02:39:02.825Z,84.00
2023-04-22T02:40:02.677Z,84.00
2023-04-22T02:41:03.104Z,84.00
2023-04-22T02:42:03.594Z,85.00
2023-04-22T02:43:03.561Z,85.00
2023-04-22T02:44:03.457Z,84.00
2023-04-22T02:45:03.316Z,84.00
2023-04-22T02:46:03.151Z,84.00
2023-04-22T02:47:03.285Z,84.00
2023-04-22T02:48:02.927Z,84.00
2023-04-22T02:49:03.050Z,84.00
2023-04-22T02:50:03.058Z,84.00
2023-04-22T02:51:02.876Z,84.00
2023-04-22T02:52:03.349Z,84.00
2023-04-22T02:53:02.888Z,84.00
2023-04-22T02:54:03.134Z,84.00
2023-04-22T02:55:02.925Z,84.00
2023-04-22T02:56:02.759Z,84.00
2023-04-22T02:57:03.799Z,84.00
2023-04-22T02:58:03.269Z,84.00
2023-04-22T02:59:03.687Z,84.00
2023-04-22T03:00:03.795Z,84.00
2023-04-22T03:01:03.847Z,84.00
2023-04-22T03:02:03.859Z,84.00
2023-04-22T03:03:03.000Z,84.00
2023-04-22T03:04:03.050Z,85.00
2023-04-22T03:05:02.615Z,85.00
2023-04-22T03:06:02.628Z,85.00
2023-04-22T03:07:02.272Z,86.00
2023-04-22T03:08:02.407Z,86.00
2023-04-22T03:09:02.600Z,86.00
2023-04-22T03:10:02.423Z,86.00
2023-04-22T03:11:02.470Z,86.00
2023-04-22T03:12:02.788Z,86.00
2023-04-22T03:13:02.592Z,86.00
2023-04-22T03:14:02.383Z,86.00
2023-04-22T03:15:02.596Z,87.00
2023-04-22T03:16:02.619Z,86.00
2023-04-22T03:17:02.657Z,86.00
2023-04-22T03:18:02.890Z,86.00
2023-04-22T03:19:02.600Z,86.00
2023-04-22T03:20:02.392Z,86.00
2023-04-22T03:21:02.263Z,86.00
2023-04-22T03:22:01.782Z,86.00
2023-04-22T03:23:02.277Z,85.00
2023-04-22T03:24:02.037Z,85.00
2023-04-22T03:25:01.895Z,85.00
2023-04-22T03:26:01.723Z,85.00
2023-04-22T03:27:02.185Z,85.00
2023-04-22T03:28:02.353Z,85.00
2023-04-22T03:29:02.684Z,85.00
2023-04-22T03:30:02.186Z,85.00
2023-04-22T03:31:02.656Z,85.00
2023-04-22T03:32:02.008Z,85.00
2023-04-22T03:33:02.488Z,85.00
2023-04-22T03:34:01.990Z,86.00
2023-04-22T03:35:01.859Z,86.00
2023-04-22T03:36:02.191Z,86.00
2023-04-22T03:37:01.918Z,86.00
2023-04-22T03:38:02.325Z,86.00
2023-04-22T03:39:01.827Z,86.00
2023-04-22T03:40:02.071Z,86.00
2023-04-22T03:41:01.873Z,87.00
2023-04-22T03:42:02.271Z,87.00
2023-04-22T03:43:02.524Z,87.00
2023-04-22T03:44:02.488Z,87.00
2023-04-22T03:45:02.789Z,87.00
2023-04-22T03:46:02.337Z,88.00
2023-04-22T03:47:02.044Z,88.00
2023-04-22T03:48:01.715Z,88.00
2023-04-22T03:49:02.176Z,88.00
2023-04-22T03:50:01.865Z,88.00
2023-04-22T03:51:02.341Z,88.00
2023-04-22T03:52:02.468Z,88.00
2023-04-22T03:53:02.486Z,88.00
2023-04-22T03:54:02.398Z,88.00
2023-04-22T03:55:02.514Z,87.00
2023-04-22T03:56:02.502Z,87.00
2023-04-22T03:57:02.061Z,87.00
2023-04-22T03:58:02.382Z,86.00
2023-04-22T03:59:01.905Z,86.00
2023-04-22T04:00:02.141Z,86.00
2023-04-22T04:01:02.195Z,86.00
2023-04-22T04:02:02.764Z,86.00
2023-04-22T04:03:02.814Z,86.00
2023-04-22T04:04:02.900Z,85.00
2023-04-22T04:05:02.882Z,85.00
2023-04-22T04:06:02.588Z,84.00
2023-04-22T04:07:03.082Z,84.00
2023-04-22T04:08:02.875Z,84.00
2023-04-22T04:09:02.798Z,84.00
2023-04-22T04:10:02.629Z,84.00
2023-04-22T04:11:03.113Z,85.00
2023-04-22T04:12:02.683Z,84.00
2023-04-22T04:13:02.721Z,85.00
2023-04-22T04:14:03.281Z,85.00
2023-04-22T04:15:02.985Z,85.00
2023-04-22T04:16:03.038Z,85.00
2023-04-22T04:17:02.583Z,85.00
2023-04-22T04:18:02.528Z,86.00
2023-04-22T04:19:02.403Z,86.00
2023-04-22T04:20:02.318Z,85.00
2023-04-22T04:21:02.175Z,85.00
2023-04-22T04:22:02.850Z,85.00
2023-04-22T04:23:02.691Z,85.00
2023-04-22T04:24:02.514Z,85.00
2023-04-22T04:25:02.839Z,85.00
2023-04-22T04:26:02.591Z,85.00
2023-04-22T04:27:03.171Z,85.00
2023-04-22T04:28:03.460Z,85.00
2023-04-22T04:29:03.372Z,85.00
2023-04-22T04:30:03.136Z,84.00
2023-04-22T04:31:03.129Z,84.00
2023-04-22T04:32:02.950Z,84.00
2023-04-22T04:33:02.919Z,85.00
2023-04-22T04:34:03.014Z,84.00
2023-04-22T04:35:02.693Z,84.00
2023-04-22T04:36:02.955Z,84.00
2023-04-22T04:37:01.939Z,85.00
2023-04-22T04:38:02.503Z,85.00
2023-04-22T04:39:02.216Z,84.00
2023-04-22T04:40:02.131Z,84.00
2023-04-22T04:41:02.051Z,84.00
2023-04-22T04:42:02.725Z,84.00
2023-04-22T04:43:02.745Z,85.00
2023-04-22T04:44:02.459Z,84.00
2023-04-22T04:45:02.515Z,84.00
2023-04-22T04:46:02.381Z,84.00
2023-04-22T04:47:03.171Z,84.00
2023-04-22T04:48:02.960Z,84.00
2023-04-22T04:49:02.617Z,84.00
2023-04-22T04:50:02.549Z,84.00
2023-04-22T04:51:03.175Z,84.00
2023-04-22T04:52:02.577Z,83.00
2023-04-22T04:53:01.975Z,83.00
2023-04-22T04:54:02.590Z,84.00
2023-04-22T04:55:01.986Z,84.00
2023-04-22T04:56:02.630Z,84.00
2023-04-22T04:57:02.909Z,84.00
2023-04-22T04:58:02.398Z,83.00
2023-04-22T04:59:02.931Z,83.00
2023-04-22T05:00:02.672Z,83.00
2023-04-22T05:01:02.896Z,83.00
2023-04-22T05:02:02.773Z,83.00
2023-04-22T05:03:02.620Z,83.00
2023-04-22T05:04:02.714Z,83.00
2023-04-22T05:05:02.473Z,84.00
2023-04-22T05:06:02.526Z,83.00
2023-04-22T05:07:03.081Z,83.00
2023-04-22T05:08:03.002Z,83.00
2023-04-22T05:09:02.910Z,83.00
2023-04-22T05:10:02.782Z,83.00
2023-04-22T05:11:02.960Z,83.00
2023-04-22T05:12:03.466Z,82.00
2023-04-22T05:13:04.267Z,82.00
2023-04-22T05:14:03.009Z,82.00
2023-04-22T05:15:02.935Z,82.00
2023-04-22T05:16:03.546Z,82.00
2023-04-22T05:17:02.989Z,82.00
2023-04-22T05:18:02.502Z,82.00
2023-04-22T05:19:02.467Z,82.00
2023-04-22T05:20:02.394Z,82.00
2023-04-22T05:21:02.990Z,82.00
2023-04-22T05:22:02.024Z,83.00
2023-04-22T05:23:02.305Z,83.00
2023-04-22T05:24:02.254Z,83.00
2023-04-22T05:25:02.298Z,83.00
2023-04-22T05:26:02.263Z,82.00
2023-04-22T05:27:02.137Z,82.00
2023-04-22T05:28:02.744Z,82.00
2023-04-22T05:29:02.489Z,81.00
2023-04-22T05:30:02.404Z,82.00
2023-04-22T05:31:02.249Z,82.00
2023-04-22T05:32:02.284Z,82.00
2023-04-22T05:33:02.393Z,82.00
2023-04-22T05:34:02.202Z,82.00
2023-04-22T05:35:02.710Z,82.00
2023-04-22T05:36:02.350Z,82.00
2023-04-22T05:37:02.227Z,81.00
2023-04-22T05:38:02.387Z,82.00
2023-04-22T05:39:02.386Z,83.00
2023-04-22T05:40:02.188Z,82.00
2023-04-22T05:41:02.184Z,83.00
2023-04-22T05:42:02.855Z,83.00
2023-04-22T05:43:02.800Z,83.00
2023-04-22T05:44:03.056Z,82.00
2023-04-22T05:45:02.960Z,82.00
2023-04-22T05:46:03.012Z,82.00
2023-04-22T05:47:02.252Z,81.00
2023-04-22T05:48:02.198Z,81.00
2023-04-22T05:49:02.134Z,81.00
2023-04-22T05:50:01.973Z,82.00
2023-04-22T05:51:02.576Z,82.00
2023-04-22T05:52:02.391Z,82.00
2023-04-22T05:53:02.511Z,81.00
2023-04-22T05:54:02.424Z,81.00
2023-04-22T05:55:02.575Z,81.00
2023-04-22T05:56:02.516Z,81.00
2023-04-22T05:57:02.454Z,82.00
2023-04-22T05:58:02.950Z,81.00
2023-04-22T05:59:02.705Z,81.00
2023-04-22T06:00:02.723Z,81.00
2023-04-22T06:01:02.687Z,81.00
2023-04-22T06:02:01.786Z,81.00
2023-04-22T06:03:01.951Z,80.00
2023-04-22T06:04:01.847Z,79.00
2023-04-22T06:05:02.267Z,79.00
2023-04-22T06:06:02.359Z,79.00
2023-04-22T06:07:02.006Z,77.00
2023-04-22T06:08:01.848Z,77.00
2023-04-22T06:09:02.395Z,77.00
2023-04-22T06:10:04.600Z,77.00
2023-04-22T06:11:02.245Z,77.00
2023-04-22T06:12:02.260Z,77.00
2023-04-22T06:13:02.644Z,77.00
2023-04-22T06:14:02.313Z,76.00
2023-04-22T06:15:02.181Z,75.00
2023-04-22T06:16:02.633Z,73.00
2023-04-22T06:17:02.574Z,73.00
2023-04-22T06:18:02.586Z,74.00
2023-04-22T06:19:02.593Z,74.00
2023-04-22T06:20:02.367Z,75.00
2023-04-22T06:21:02.279Z,73.00
2023-04-22T06:22:02.006Z,74.00
2023-04-22T06:23:02.035Z,74.00
2023-04-22T06:24:02.430Z,73.00
2023-04-22T06:25:02.245Z,73.00
2023-04-22T06:26:02.058Z,73.00
2023-04-22T06:27:01.984Z,74.00
2023-04-22T06:28:01.994Z,74.00
2023-04-22T06:29:02.061Z,74.00
2023-04-22T06:30:01.973Z,74.00
2023-04-22T06:31:02.001Z,73.00
2023-04-22T06:32:02.616Z,73.00
2023-04-22T06:33:02.565Z,73.00
2023-04-22T06:34:02.434Z,72.00
2023-04-22T06:35:03.027Z,73.00
2023-04-22T06:36:02.726Z,73.00
2023-04-22T06:37:02.664Z,72.00
2023-04-22T06:38:02.902Z,73.00
2023-04-22T06:39:02.773Z,73.00
2023-04-22T06:40:02.623Z,73.00
2023-04-22T06:41:02.786Z,72.00
2023-04-22T06:42:01.899Z,72.00
2023-04-22T06:43:01.759Z,72.00
2023-04-22T06:44:01.505Z,71.00
2023-04-22T06:45:02.102Z,71.00
2023-04-22T06:46:01.854Z,72.00
2023-04-22T06:47:02.404Z,72.00
2023-04-22T06:48:02.676Z,72.00
2023-04-22T06:49:02.816Z,71.00
2023-04-22T06:50:02.537Z,71.00
2023-04-22T06:51:02.816Z,71.00
2023-04-22T06:52:01.955Z,71.00
2023-04-22T06:53:01.916Z,71.00
2023-04-22T06:54:01.849Z,72.00
2023-04-22T06:55:01.800Z,72.00
2023-04-22T06:56:01.778Z,73.00
2023-04-22T06:57:02.403Z,72.00
2023-04-22T06:58:02.379Z,70.00
2023-04-22T06:59:02.548Z,69.00
2023-04-22T07:00:02.564Z,70.00
2023-04-22T07:01:02.350Z,70.00
2023-04-22T07:02:03.108Z,69.00
2023-04-22T07:03:03.200Z,68.00
2023-04-22T07:04:03.138Z,67.00
2023-04-22T07:05:03.203Z,68.00
2023-04-22T07:06:03.024Z,67.00
2023-04-22T07:07:03.556Z,67.00
2023-04-22T07:08:03.942Z,67.00
2023-04-22T07:09:03.596Z,66.00
2023-04-22T07:10:03.401Z,65.00
2023-04-22T07:11:03.932Z,64.00
2023-04-22T07:12:03.244Z,64.00
2023-04-22T07:13:02.948Z,65.00
2023-04-22T07:14:03.556Z,64.00
2023-04-22T07:15:03.028Z,65.00
2023-04-22T07:16:03.357Z,65.00
2023-04-22T07:17:03.305Z,66.00
2023-04-22T07:18:03.141Z,65.00
2023-04-22T07:19:03.232Z,65.00
2023-04-22T07:20:03.182Z,65.00
2023-04-22T07:21:03.182Z,64.00
2023-04-22T07:22:03.704Z,63.00
2023-04-22T07:23:03.604Z,64.00
2023-04-22T07:24:03.578Z,63.00
2023-04-22T07:25:03.638Z,64.00
2023-04-22T07:26:03.632Z,64.00
2023-04-22T07:27:03.066Z,64.00
2023-04-22T07:28:03.037Z,63.00
2023-04-22T07:29:03.051Z,63.00
2023-04-22T07:30:03.223Z,62.00
2023-04-22T07:31:02.613Z,61.00
2023-04-22T07:32:03.024Z,62.00
2023-04-22T07:33:03.134Z,59.00
2023-04-22T07:34:03.048Z,60.00
2023-04-22T07:35:03.119Z,60.00
2023-04-22T07:36:03.037Z,61.00
2023-04-22T07:37:03.700Z,60.00
2023-04-22T07:38:03.318Z,60.00
2023-04-22T07:39:03.395Z,60.00
2023-04-22T07:40:03.650Z,58.00
2023-04-22T07:41:03.593Z,59.00
2023-04-22T07:42:03.306Z,58.00
2023-04-22T07:43:03.351Z,59.00
2023-04-22T07:44:03.198Z,58.00
2023-04-22T07:45:03.059Z,59.00
2023-04-22T07:46:03.142Z,58.00
2023-04-22T07:47:03.439Z,58.00
2023-04-22T07:48:03.517Z,58.00
2023-04-22T07:49:03.344Z,58.00
2023-04-22T07:50:03.357Z,57.00
2023-04-22T07:51:03.167Z,57.00
2023-04-22T07:52:03.005Z,58.00
2023-04-22T07:53:02.788Z,56.00
2023-04-22T07:54:03.057Z,56.00
2023-04-22T07:55:02.878Z,57.00
2023-04-22T07:56:02.943Z,56.00
2023-04-22T07:57:03.055Z,55.00
2023-04-22T07:58:02.833Z,56.00
2023-04-22T07:59:02.929Z,55.00
2023-04-22T08:00:02.871Z,54.00
2023-04-22T08:01:02.873Z,54.00
2023-04-22T08:02:02.391Z,55.00
2023-04-22T08:03:02.417Z,54.00
2023-04-22T08:04:02.431Z,54.00
2023-04-22T08:05:02.054Z,55.00
2023-04-22T08:06:02.244Z,55.00
2023-04-22T08:07:09.259Z,55.00
2023-04-22T08:08:02.186Z,54.00
2023-04-22T08:09:02.237Z,54.00
2023-04-22T08:10:02.284Z,54.00
2023-04-22T08:11:02.341Z,53.00
2023-04-22T08:12:02.962Z,53.00
2023-04-22T08:13:02.797Z,53.00
2023-04-22T08:14:02.716Z,53.00
2023-04-22T08:15:02.615Z,54.00
2023-04-22T08:16:02.667Z,53.00
2023-04-22T08:17:03.030Z,53.00
2023-04-22T08:18:03.154Z,52.00
2023-04-22T08:19:03.056Z,53.00
2023-04-22T08:20:02.635Z,51.00
2023-04-22T08:21:02.671Z,50.00
2023-04-22T08:22:01.805Z,51.00
2023-04-22T08:23:02.480Z,52.00
2023-04-22T08:24:02.299Z,50.00
2023-04-22T08:25:02.159Z,52.00
2023-04-22T08:26:02.265Z,50.00
2023-04-22T08:27:02.760Z,51.00
2023-04-22T08:28:02.404Z,51.00
2023-04-22T08:29:02.469Z,50.00
2023-04-22T08:30:02.456Z,49.00
2023-04-22T08:31:02.490Z,48.00
2023-04-22T08:32:02.578Z,48.00
2023-04-22T08:33:02.795Z,50.00
2023-04-22T08:34:02.760Z,50.00
2023-04-22T08:35:05.668Z,49.00
2023-04-22T08:36:02.863Z,47.00
2023-04-22T08:37:02.083Z,46.00
2023-04-22T08:38:02.486Z,45.00
2023-04-22T08:39:02.091Z,47.00
2023-04-22T08:40:02.070Z,48.00
2023-04-22T08:41:02.203Z,48.00
2023-04-22T08:42:02.188Z,47.00
2023-04-22T08:43:02.333Z,45.00
2023-04-22T08:44:02.782Z,44.00
2023-04-22T08:45:02.575Z,46.00
2023-04-22T08:46:02.794Z,47.00
2023-04-22T08:47:03.036Z,46.00
2023-04-22T08:48:02.886Z,44.00
2023-04-22T08:49:02.734Z,44.00
2023-04-22T08:50:02.704Z,45.00
2023-04-22T08:51:02.899Z,44.00
2023-04-22T08:52:02.156Z,43.00
2023-04-22T08:53:02.030Z,43.00
2023-04-22T08:54:02.736Z,44.00
2023-04-22T08:55:02.485Z,43.00
2023-04-22T08:56:02.511Z,42.00
2023-04-22T08:57:02.563Z,42.00
2023-04-22T08:58:02.942Z,43.00
2023-04-22T08:59:02.992Z,43.00
2023-04-22T09:00:02.799Z,43.00
2023-04-22T09:01:02.980Z,42.00
2023-04-22T09:02:02.210Z,43.00
2023-04-22T09:03:02.265Z,41.00
2023-04-22T09:04:02.192Z,43.00
2023-04-22T09:05:02.023Z,43.00
2023-04-22T09:06:02.081Z,43.00
2023-04-22T09:07:01.897Z,42.00
2023-04-22T09:08:01.880Z,42.00
2023-04-22T09:09:01.955Z,42.00
2023-04-22T09:10:01.879Z,43.00
2023-04-22T09:11:02.254Z,42.00
2023-04-22T09:12:02.068Z,43.00
2023-04-22T09:13:01.978Z,44.00
2023-04-22T09:14:02.065Z,44.00
2023-04-22T09:15:02.131Z,44.00
2023-04-22T09:16:02.260Z,43.00
2023-04-22T09:17:02.259Z,44.00
2023-04-22T09:18:02.303Z,43.00
2023-04-22T09:19:02.423Z,42.00
2023-04-22T09:20:02.310Z,42.00
2023-04-22T09:21:02.281Z,41.00
2023-04-22T09:22:02.278Z,41.00
2023-04-22T09:23:02.683Z,42.00
2023-04-22T09:24:02.483Z,42.00
2023-04-22T09:25:02.436Z,42.00
2023-04-22T09:26:02.540Z,43.00
2023-04-22T09:27:02.645Z,44.00
2023-04-22T09:28:02.766Z,41.00
2023-04-22T09:29:02.597Z,42.00
2023-04-22T09:30:02.645Z,42.00
2023-04-22T09:31:02.720Z,41.00
2023-04-22T09:32:02.178Z,42.00
2023-04-22T09:33:02.550Z,41.00
2023-04-22T09:34:02.367Z,41.00
2023-04-22T09:35:02.476Z,42.00
2023-04-22T09:36:02.358Z,42.00
2023-04-22T09:37:02.326Z,40.00
2023-04-22T09:38:02.442Z,41.00
2023-04-22T09:39:02.508Z,40.00
2023-04-22T09:40:02.505Z,40.00
2023-04-22T09:41:02.136Z,40.00
2023-04-22T09:42:02.775Z,41.00
2023-04-22T09:43:02.857Z,41.00
2023-04-22T09:44:03.003Z,41.00
2023-04-22T09:45:02.597Z,41.00
2023-04-22T09:46:02.726Z,41.00
2023-04-22T09:47:02.356Z,41.00
2023-04-22T09:48:02.448Z,41.00
2023-04-22T09:49:02.410Z,39.00
2023-04-22T09:50:02.453Z,40.00
2023-04-22T09:51:02.387Z,41.00
2023-04-22T09:52:02.969Z,41.00
2023-04-22T09:53:02.906Z,41.00
2023-04-22T09:54:03.030Z,41.00
2023-04-22T09:55:03.181Z,40.00
2023-04-22T09:56:03.192Z,40.00
2023-04-22T09:57:02.298Z,40.00
2023-04-22T09:58:02.245Z,40.00
2023-04-22T09:59:02.309Z,40.00
2023-04-22T10:00:02.408Z,40.00
2023-04-22T10:01:02.293Z,41.00
2023-04-22T10:02:02.629Z,40.00
2023-04-22T10:03:02.775Z,41.00
2023-04-22T10:04:02.535Z,40.00
2023-04-22T10:05:02.714Z,40.00
2023-04-22T10:06:02.801Z,41.00
2023-04-22T10:07:02.964Z,41.00
2023-04-22T10:08:03.033Z,41.00
2023-04-22T10:09:02.896Z,41.00
2023-04-22T10:10:03.023Z,40.00
2023-04-22T10:11:02.981Z,39.00
2023-04-22T10:12:02.970Z,39.00
2023-04-22T10:13:03.056Z,39.00
2023-04-22T10:14:03.236Z,40.00
2023-04-22T10:15:03.112Z,39.00
2023-04-22T10:16:03.198Z,39.00
2023-04-22T10:17:03.094Z,39.00
2023-04-22T10:18:03.124Z,38.00
2023-04-22T10:19:02.774Z,37.00
2023-04-22T10:20:02.893Z,37.00
2023-04-22T10:21:02.818Z,37.00
2023-04-22T10:22:02.730Z,38.00
2023-04-22T10:23:02.742Z,38.00
2023-04-22T10:24:02.454Z,37.00
2023-04-22T10:25:02.849Z,37.00
2023-04-22T10:26:02.705Z,38.00
2023-04-22T10:27:02.939Z,37.00
2023-04-22T10:28:02.921Z,38.00
2023-04-22T10:29:02.994Z,38.00
2023-04-22T10:30:03.115Z,38.00
2023-04-22T10:31:02.997Z,37.00
2023-04-22T10:32:03.173Z,38.00
2023-04-22T10:33:03.361Z,39.00
2023-04-22T10:34:02.770Z,39.00
2023-04-22T10:35:03.138Z,39.00
2023-04-22T10:36:03.184Z,39.00
2023-04-22T10:37:03.562Z,39.00
2023-04-22T10:38:03.659Z,39.00
2023-04-22T10:39:03.800Z,39.00
2023-04-22T10:40:03.647Z,40.00
2023-04-22T10:41:03.949Z,39.00
2023-04-22T10:42:03.580Z,39.00
2023-04-22T10:43:03.710Z,39.00
2023-04-22T10:44:03.496Z,39.00
2023-04-22T10:45:03.835Z,40.00
2023-04-22T10:46:03.866Z,40.00
2023-04-22T10:47:02.935Z,39.00
2023-04-22T10:48:02.574Z,39.00
2023-04-22T10:49:02.593Z,39.00
2023-04-22T10:50:02.669Z,38.00
2023-04-22T10:51:02.803Z,38.00
2023-04-22T10:52:03.206Z,39.00
2023-04-22T10:53:03.136Z,39.00
2023-04-22T10:54:02.897Z,39.00
2023-04-22T10:55:03.014Z,39.00
2023-04-22T10:56:03.138Z,40.00
2023-04-22T10:57:02.946Z,38.00
2023-04-22T10:58:02.725Z,38.00
2023-04-22T10:59:02.721Z,38.00
2023-04-22T11:00:02.973Z,38.00
2023-04-22T11:01:02.893Z,39.00
2023-04-22T11:02:02.681Z,39.00
2023-04-22T11:03:02.594Z,38.00
2023-04-22T11:04:02.554Z,39.00
2023-04-22T11:05:02.462Z,39.00
2023-04-22T11:06:02.409Z,40.00
2023-04-22T11:07:03.126Z,38.00
2023-04-22T11:08:02.967Z,39.00
2023-04-22T11:09:02.913Z,39.00
2023-04-22T11:10:02.662Z,38.00
2023-04-22T11:11:02.620Z,39.00
2023-04-22T11:12:03.139Z,39.00
2023-04-22T11:13:02.985Z,39.00
2023-04-22T11:14:02.791Z,40.00
2023-04-22T11:15:03.183Z,40.00
2023-04-22T11:16:02.860Z,39.00
2023-04-22T11:17:03.349Z,39.00
2023-04-22T11:18:03.244Z,39.00
2023-04-22T11:19:03.030Z,39.00
2023-04-22T11:20:03.251Z,39.00
2023-04-22T11:21:03.450Z,40.00
2023-04-22T11:22:02.877Z,38.00
2023-04-22T11:23:02.897Z,38.00
2023-04-22T11:24:02.625Z,38.00
2023-04-22T11:25:02.531Z,39.00
2023-04-22T11:26:02.717Z,39.00
2023-04-22T11:27:03.370Z,39.00
2023-04-22T11:28:03.261Z,39.00
2023-04-22T11:29:02.772Z,38.00
2023-04-22T11:30:02.953Z,38.00
2023-04-22T11:31:03.448Z,39.00
2023-04-22T11:32:03.475Z,39.00
2023-04-22T11:33:03.602Z,39.00
2023-04-22T11:34:03.321Z,41.00
2023-04-22T11:35:03.418Z,39.00
2023-04-22T11:36:03.136Z,39.00
2023-04-22T11:37:02.406Z,40.00
2023-04-22T11:38:02.895Z,39.00
2023-04-22T11:39:02.840Z,39.00
2023-04-22T11:40:27.371Z,38.00
2023-04-22T11:41:02.455Z,38.00
2023-04-22T11:42:02.530Z,38.00
2023-04-22T11:43:02.724Z,38.00
2023-04-22T11:44:03.114Z,39.00
2023-04-22T11:45:03.035Z,38.00
2023-04-22T11:46:03.278Z,39.00
2023-04-22T11:47:02.655Z,38.00
2023-04-22T11:48:02.846Z,38.00
2023-04-22T11:49:02.974Z,38.00
2023-04-22T11:50:03.201Z,38.00
2023-04-22T11:51:02.865Z,38.00
2023-04-22T11:52:02.951Z,38.00
2023-04-22T11:53:02.112Z,38.00
2023-04-22T11:54:02.143Z,38.00
2023-04-22T11:55:02.188Z,38.00
2023-04-22T11:56:02.491Z,38.00
2023-04-22T11:57:02.082Z,39.00
2023-04-22T11:58:02.269Z,39.00
2023-04-22T11:59:02.446Z,39.00
2023-04-22T12:00:02.362Z,39.00
2023-04-22T12:01:02.624Z,38.00
2023-04-22T12:02:02.722Z,39.00
2023-04-22T12:03:03.128Z,39.00
2023-04-22T12:04:03.618Z,39.00
2023-04-22T12:05:03.544Z,38.00
2023-04-22T12:06:02.859Z,38.00
2023-04-22T12:07:03.229Z,38.00
2023-04-22T12:08:02.823Z,38.00
2023-04-22T12:09:02.936Z,37.00
2023-04-22T12:10:03.033Z,38.00
2023-04-22T12:11:02.450Z,38.00
2023-04-22T12:12:02.571Z,38.00
2023-04-22T12:13:03.413Z,38.00
2023-04-22T12:14:03.450Z,38.00
2023-04-22T12:15:03.472Z,38.00
2023-04-22T12:16:03.425Z,38.00
2023-04-22T12:17:03.419Z,39.00
2023-04-22T12:18:03.624Z,38.00
2023-04-22T12:19:03.682Z,38.00
2023-04-22T12:20:03.403Z,38.00
2023-04-22T12:21:03.588Z,38.00
2023-04-22T12:22:03.318Z,39.00
2023-04-22T12:23:02.816Z,39.00
2023-04-22T12:24:02.805Z,39.00
2023-04-22T12:25:02.787Z,40.00
2023-04-22T12:26:03.040Z,39.00
2023-04-22T12:27:03.282Z,39.00
2023-04-22T12:28:03.546Z,39.00
2023-04-22T12:29:03.540Z,39.00
2023-04-22T12:30:03.297Z,39.00
2023-04-22T12:31:03.150Z,38.00
2023-04-22T12:32:03.593Z,38.00
2023-04-22T12:33:03.252Z,39.00
2023-04-22T12:34:03.036Z,39.00
2023-04-22T12:35:03.234Z,39.00
2023-04-22T12:36:03.225Z,38.00
2023-04-22T12:37:03.311Z,39.00
2023-04-22T12:38:03.222Z,39.00
2023-04-22T12:39:03.310Z,39.00
2023-04-22T12:40:03.150Z,39.00
2023-04-22T12:41:02.790Z,39.00
2023-04-22T12:42:03.215Z,39.00
2023-04-22T12:43:03.181Z,39.00
2023-04-22T12:44:03.202Z,40.00
2023-04-22T12:45:03.390Z,39.00
2023-04-22T12:46:03.200Z,39.00
2023-04-22T12:47:02.888Z,40.00
2023-04-22T12:48:03.540Z,40.00
2023-04-22T12:49:03.718Z,40.00
2023-04-22T12:50:03.552Z,40.00
2023-04-22T12:51:03.730Z,40.00
2023-04-22T12:52:03.548Z,39.00